Time;durP1;ratioP1;P1;durP2;ratioP2;P2;SDS_P1;SDS_P2;PMS_P1;PMS_P2;Temp;Humidity;BMP_temperature;BMP_pressure;BME280_temperature;BME280_humidity;BME280_pressure;Samples;Min_cycle;Max_cycle;Signal;HPM_P1;HPM_P2
2023/03/18 00:01:14;;;;;;;17.97;4.40;;;;;;;10.07;56.64;100521.56;5033288;28;20466;-69
2023/03/18 00:03:41;;;;;;;14.33;4.53;;;;;;;10.10;56.09;100533.72;5033145;28;20462;-69
2023/03/18 00:06:10;;;;;;;8.67;3.23;;;;;;;10.09;56.32;100527.50;5034185;28;20549;-69
2023/03/18 00:08:39;;;;;;;10.60;4.27;;;;;;;10.17;55.99;100528.69;5030349;28;20475;-68
2023/03/18 00:11:07;;;;;;;9.93;3.97;;;;;;;10.14;56.50;100521.19;5035209;28;20447;-69
2023/03/18 00:13:34;;;;;;;8.27;3.50;;;;;;;10.12;56.05;100523.38;5034758;28;20498;-69
2023/03/18 00:16:01;;;;;;;18.03;4.33;;;;;;;10.06;56.05;100527.28;5035815;28;20809;-70
2023/03/18 00:18:27;;;;;;;8.70;4.13;;;;;;;10.08;55.34;100519.66;5032827;28;20911;-69
2023/03/18 00:20:54;;;;;;;9.93;4.10;;;;;;;10.12;55.38;100520.66;5033017;28;20462;-69
2023/03/18 00:23:21;;;;;;;11.70;4.10;;;;;;;10.09;55.97;100519.38;5035834;28;20536;-69
2023/03/18 00:25:52;;;;;;;9.43;4.33;;;;;;;10.04;55.75;100503.22;5034651;28;20463;-69
2023/03/18 00:28:19;;;;;;;12.67;4.20;;;;;;;9.93;55.59;100518.03;5033637;28;20459;-69
2023/03/18 00:30:46;;;;;;;12.30;4.57;;;;;;;9.84;56.33;100520.63;5035716;28;20530;-69
2023/03/18 00:33:13;;;;;;;9.87;3.90;;;;;;;9.88;56.74;100522.75;5034310;28;20847;-70
2023/03/18 00:35:39;;;;;;;12.00;4.00;;;;;;;9.92;55.95;100515.63;5035281;28;20984;-69
2023/03/18 00:38:08;;;;;;;13.77;4.57;;;;;;;9.78;57.13;100511.00;5033984;28;20487;-69
2023/03/18 00:40:52;;;;;;;8.97;3.63;;;;;;;9.81;57.37;100509.59;5035533;28;20447;-69
2023/03/18 00:43:21;;;;;;;12.03;4.47;;;;;;;9.81;57.03;100506.88;5031011;28;20513;-69
2023/03/18 00:45:50;;;;;;;11.93;4.10;;;;;;;9.83;57.12;100508.22;5040164;28;20454;-70
2023/03/18 00:48:17;;;;;;;11.80;3.53;;;;;;;9.83;57.30;100508.22;5034178;28;20459;-70
2023/03/18 00:50:45;;;;;;;9.87;3.73;;;;;;;9.82;57.50;100506.56;5027105;28;20465;-69
2023/03/18 00:53:13;;;;;;;10.23;3.63;;;;;;;9.81;57.82;100509.59;5032309;28;20542;-70
2023/03/18 00:55:40;;;;;;;9.97;3.30;;;;;;;9.79;57.45;100507.19;5034799;28;20439;-70
2023/03/18 00:58:07;;;;;;;10.53;4.03;;;;;;;9.81;57.18;100509.59;5033639;28;21072;-70
2023/03/18 01:00:36;;;;;;;9.70;3.93;;;;;;;9.84;57.27;100509.81;5035105;28;20447;-69
2023/03/18 01:03:03;;;;;;;7.67;2.63;;;;;;;9.83;57.60;100510.91;5032557;28;20929;-69
2023/03/18 01:05:30;;;;;;;9.43;3.37;;;;;;;9.82;57.58;100505.78;5035004;28;20462;-70
2023/03/18 01:07:57;;;;;;;12.63;4.60;;;;;;;9.77;57.76;100495.84;5033230;28;20460;-69
2023/03/18 01:10:23;;;;;;;14.37;4.53;;;;;;;9.77;57.72;100508.56;5027549;28;20486;-69
2023/03/18 01:12:50;;;;;;;16.10;4.43;;;;;;;9.78;57.51;100489.38;5024004;28;20463;-69
2023/03/18 01:15:19;;;;;;;11.43;3.70;;;;;;;9.78;57.27;100493.94;5033703;28;20543;-69
2023/03/18 01:17:48;;;;;;;10.73;4.70;;;;;;;9.74;57.53;100490.22;5034610;28;20856;-69
2023/03/18 01:20:17;;;;;;;13.80;4.33;;;;;;;9.76;57.72;100496.97;5033240;28;20482;-69
2023/03/18 01:22:43;;;;;;;10.50;4.20;;;;;;;9.75;58.08;100500.78;5034415;28;20438;-69
2023/03/18 01:25:12;;;;;;;9.17;3.20;;;;;;;9.76;57.84;100502.38;5033218;28;20834;-69
2023/03/18 01:27:39;;;;;;;15.23;3.90;;;;;;;9.73;58.28;100489.44;5034372;28;20459;-69
2023/03/18 01:30:08;;;;;;;11.37;3.77;;;;;;;9.69;57.61;100496.53;5033654;28;20520;-69
2023/03/18 01:32:36;;;;;;;9.20;3.50;;;;;;;9.70;57.54;100495.47;5032343;28;20968;-70
2023/03/18 01:35:06;;;;;;;11.93;4.10;;;;;;;9.67;57.40;100493.34;5034198;28;20439;-69
2023/03/18 01:37:32;;;;;;;11.00;3.80;;;;;;;9.64;57.42;100493.91;5033288;28;20575;-69
2023/03/18 01:39:59;;;;;;;8.97;3.63;;;;;;;9.65;57.30;100492.84;5034358;28;20466;-70
2023/03/18 01:42:26;;;;;;;9.20;3.70;;;;;;;9.62;57.26;100495.34;5031987;28;20471;-70
2023/03/18 01:45:11;;;;;;;8.30;3.23;;;;;;;9.57;57.55;100497.03;5030850;28;20980;-70
2023/03/18 01:47:38;;;;;;;9.37;3.97;;;;;;;9.60;56.94;100498.31;5034829;28;20464;-70
2023/03/18 01:50:07;;;;;;;12.80;4.70;;;;;;;9.62;57.19;100498.84;5033215;28;20475;-69
2023/03/18 01:52:35;;;;;;;7.97;3.40;;;;;;;9.67;57.30;100487.94;5037827;28;20931;-70
2023/03/18 01:55:05;;;;;;;9.20;3.80;;;;;;;9.68;57.66;100492.22;5033914;28;20452;-70
2023/03/18 01:57:33;;;;;;;9.20;3.40;;;;;;;9.68;57.66;100494.94;5035004;28;20475;-68
2023/03/18 02:00:01;;;;;;;11.07;4.00;;;;;;;9.71;56.86;100496.25;5032442;28;20483;-69
2023/03/18 02:02:28;;;;;;;8.80;3.43;;;;;;;9.73;56.99;100500.25;5028832;28;20489;-69
2023/03/18 02:04:59;;;;;;;12.37;4.27;;;;;;;9.74;57.13;100501.06;5030870;28;20463;-70
2023/03/18 02:07:29;;;;;;;8.97;3.27;;;;;;;9.74;56.99;100498.34;5030346;28;20462;-70
2023/03/18 02:09:58;;;;;;;9.40;3.50;;;;;;;9.76;57.57;100504.28;5042942;28;21288;-69
2023/03/18 02:12:28;;;;;;;11.37;3.97;;;;;;;9.72;57.71;100495.94;5032911;28;21047;-69
2023/03/18 02:14:55;;;;;;;11.50;3.77;;;;;;;9.75;57.34;100498.06;5031351;28;20459;-69
2023/03/18 02:17:26;;;;;;;17.63;3.70;;;;;;;9.76;57.02;100496.97;5033389;28;20921;-69
2023/03/18 02:20:02;;;;;;;9.30;3.33;;;;;;;9.77;56.29;100495.06;5032236;28;20495;-70
2023/03/18 02:22:33;;;;;;;14.33;3.23;;;;;;;9.77;56.57;100498.56;5033491;28;20955;-70
2023/03/18 02:25:09;;;;;;;13.00;4.00;;;;;;;9.80;56.63;100497.97;5032964;28;20467;-70
2023/03/18 02:27:41;;;;;;;10.10;3.00;;;;;;;9.75;56.94;100495.38;5032213;28;20450;-70
2023/03/18 02:30:12;;;;;;;8.50;3.10;;;;;;;9.76;56.35;100498.88;5033376;28;20455;-70
2023/03/18 02:32:40;;;;;;;14.90;3.90;;;;;;;9.75;55.78;100495.38;5033423;28;20447;-70
2023/03/18 02:35:11;;;;;;;8.70;3.43;;;;;;;9.69;55.93;100498.44;5032143;28;20458;-70
2023/03/18 02:37:38;;;;;;;12.40;3.40;;;;;;;9.68;56.90;100504.94;5033274;28;20431;-70
2023/03/18 02:40:18;;;;;;;11.40;3.30;;;;;;;9.67;57.17;100498.75;5032662;28;20486;-70
2023/03/18 02:42:47;;;;;;;8.10;2.93;;;;;;;9.73;56.14;100494.84;5032174;28;20419;-70
2023/03/18 02:45:24;;;;;;;8.67;3.43;;;;;;;9.66;56.31;100491.75;5029384;28;21026;-70
2023/03/18 02:47:52;;;;;;;9.33;3.40;;;;;;;9.60;56.41;100492.91;5032782;28;20522;-69
2023/03/18 02:50:20;;;;;;;10.50;3.60;;;;;;;9.56;56.40;100494.59;5032801;28;20965;-70
2023/03/18 02:52:47;;;;;;;9.47;3.67;;;;;;;9.48;56.27;100493.41;5030422;28;20467;-70
2023/03/18 02:55:14;;;;;;;10.57;2.90;;;;;;;9.47;56.47;100488.25;5032778;28;20453;-69
2023/03/18 02:57:40;;;;;;;11.87;3.90;;;;;;;9.43;56.55;100476.44;5030706;28;20474;-70
2023/03/18 03:00:12;;;;;;;12.50;4.03;;;;;;;9.42;56.27;100480.25;5032949;28;20593;-69
2023/03/18 03:02:39;;;;;;;8.33;3.03;;;;;;;9.41;56.45;100481.34;5031873;28;20465;-70
2023/03/18 03:05:08;;;;;;;10.03;4.00;;;;;;;9.40;56.95;100490.56;5033046;28;20482;-69
2023/03/18 03:07:34;;;;;;;10.00;3.77;;;;;;;9.35;57.75;100505.75;5029880;28;20490;-70
2023/03/18 03:10:01;;;;;;;12.83;4.00;;;;;;;9.38;57.28;100498.16;5050139;28;20505;-69
2023/03/18 03:12:28;;;;;;;10.83;3.70;;;;;;;9.38;58.41;100487.34;5042560;28;20493;-69
2023/03/18 03:14:55;;;;;;;7.80;2.80;;;;;;;9.36;58.59;100490.34;5037805;28;20467;-69
2023/03/18 03:17:23;;;;;;;11.00;3.40;;;;;;;9.28;58.45;100483.69;5028619;28;20491;-69
2023/03/18 03:19:50;;;;;;;11.27;3.77;;;;;;;9.23;58.46;100493.78;5038131;28;20872;-70
2023/03/18 03:22:17;;;;;;;8.00;3.00;;;;;;;9.28;58.17;100494.50;5036285;28;20467;-69
2023/03/18 03:24:44;;;;;;;11.07;4.27;;;;;;;9.32;57.18;100495.53;5019400;28;20496;-70
2023/03/18 03:27:11;;;;;;;11.77;3.47;;;;;;;9.38;56.83;100503.56;5025772;28;20470;-70
2023/03/18 03:29:37;;;;;;;7.63;2.73;;;;;;;9.37;57.31;100504.66;5032713;28;20470;-70
2023/03/18 03:32:05;;;;;;;8.00;2.90;;;;;;;9.31;58.37;100501.25;5032315;28;20498;-69
2023/03/18 03:34:33;;;;;;;11.47;3.63;;;;;;;9.33;58.38;100497.13;5031973;28;20482;-70
2023/03/18 03:37:00;;;;;;;12.20;3.40;;;;;;;9.37;57.35;100508.16;5031542;28;20514;-70
2023/03/18 03:39:27;;;;;;;8.70;3.20;;;;;;;9.40;57.17;100509.47;5032567;28;20489;-70
2023/03/18 03:41:54;;;;;;;17.67;3.17;;;;;;;9.36;58.49;100503.84;5031703;28;20493;-70
2023/03/18 03:44:20;;;;;;;9.13;3.07;;;;;;;9.32;58.53;100510.94;5032325;28;20450;-70
2023/03/18 03:46:47;;;;;;;9.23;3.07;;;;;;;9.33;58.63;100499.84;5028822;28;20459;-70
2023/03/18 03:49:14;;;;;;;10.43;3.03;;;;;;;9.30;58.15;100497.75;5032369;28;21008;-70
2023/03/18 03:51:42;;;;;;;8.53;3.20;;;;;;;9.32;57.80;100500.94;5032618;28;20449;-70
2023/03/18 03:54:08;;;;;;;11.20;3.10;;;;;;;9.35;58.29;100497.66;5035420;28;21039;-70
2023/03/18 03:56:35;;;;;;;8.20;2.93;;;;;;;9.33;58.92;100491.72;5035187;28;20558;-70
2023/03/18 03:59:03;;;;;;;8.90;2.77;;;;;;;9.23;58.89;100500.00;5036080;28;20578;-70
2023/03/18 04:01:30;;;;;;;15.30;2.80;;;;;;;9.24;58.32;100503.50;5036286;28;20446;-70
2023/03/18 04:03:56;;;;;;;8.03;3.10;;;;;;;9.19;58.53;100508.97;5035710;28;20539;-71
2023/03/18 04:06:23;;;;;;;9.07;3.13;;;;;;;9.15;58.29;100506.06;5036206;28;20474;-71
2023/03/18 04:08:51;;;;;;;9.53;2.60;;;;;;;9.04;58.26;100512.72;5034767;28;20570;-71
2023/03/18 04:11:17;;;;;;;11.50;3.60;;;;;;;9.10;57.59;100514.25;5035357;28;20541;-71
2023/03/18 04:13:44;;;;;;;9.27;3.03;;;;;;;9.18;57.47;100512.78;5026179;28;20461;-71
2023/03/18 04:16:11;;;;;;;7.90;2.57;;;;;;;9.18;57.81;100510.88;5036012;28;20474;-71
2023/03/18 04:18:37;;;;;;;9.53;3.37;;;;;;;9.15;57.81;100514.16;5034694;28;20578;-71
2023/03/18 04:21:04;;;;;;;9.93;2.70;;;;;;;9.13;57.38;100519.06;5036653;28;20442;-70
2023/03/18 04:23:32;;;;;;;14.70;3.80;;;;;;;9.12;58.15;100528.28;5034855;28;20471;-71
2023/03/18 04:26:00;;;;;;;10.00;2.80;;;;;;;9.18;56.99;100524.41;5035646;28;20483;-71
2023/03/18 04:28:26;;;;;;;27.73;4.00;;;;;;;9.18;58.02;100519.00;5037390;28;20461;-70
2023/03/18 04:30:53;;;;;;;9.87;3.17;;;;;;;9.14;58.94;100517.19;5033658;28;20649;-71
2023/03/18 04:33:20;;;;;;;10.33;3.40;;;;;;;9.13;59.15;100523.69;5050872;28;20441;-71
2023/03/18 04:35:48;;;;;;;11.57;3.40;;;;;;;9.11;59.47;100521.25;5037833;28;20964;-72
2023/03/18 04:38:14;;;;;;;10.80;2.47;;;;;;;9.07;59.41;100522.94;5055924;28;20877;-71
2023/03/18 04:40:42;;;;;;;7.10;2.90;;;;;;;9.08;59.08;100519.16;5036227;28;20487;-71
2023/03/18 04:43:10;;;;;;;9.33;3.40;;;;;;;9.08;58.73;100532.66;5034550;28;20941;-71
2023/03/18 04:45:36;;;;;;;8.70;3.60;;;;;;;9.10;59.00;100533.16;5034445;28;20459;-71
2023/03/18 04:48:04;;;;;;;10.77;2.60;;;;;;;9.07;59.25;100528.34;5034853;28;20961;-71
2023/03/18 04:50:31;;;;;;;16.70;4.90;;;;;;;9.07;59.29;100531.88;5032932;28;20490;-71
2023/03/18 04:52:58;;;;;;;11.00;3.47;;;;;;;9.01;59.60;100538.41;5035580;28;20478;-71
2023/03/18 04:55:25;;;;;;;11.90;3.47;;;;;;;9.00;60.29;100539.53;5034014;28;20462;-71
2023/03/18 04:57:52;;;;;;;7.50;2.53;;;;;;;8.88;61.01;100530.22;5034856;28;20857;-71
2023/03/18 05:00:21;;;;;;;11.67;3.57;;;;;;;8.82;61.45;100534.91;5033010;28;20521;-71
2023/03/18 05:02:48;;;;;;;8.20;3.10;;;;;;;8.78;61.84;100540.09;5034500;28;20451;-71
2023/03/18 05:05:15;;;;;;;11.23;3.83;;;;;;;8.79;60.98;100533.56;5034912;28;20443;-71
2023/03/18 05:07:42;;;;;;;7.10;2.47;;;;;;;8.78;61.61;100539.28;5033936;28;20469;-71
2023/03/18 05:10:10;;;;;;;9.50;2.77;;;;;;;8.74;61.67;100536.34;5032615;28;20984;-71
2023/03/18 05:12:36;;;;;;;9.20;3.57;;;;;;;8.72;62.92;100537.72;5034797;28;20542;-71
2023/03/18 05:15:04;;;;;;;7.27;2.57;;;;;;;8.66;61.90;100534.28;5034984;28;20446;-71
2023/03/18 05:17:32;;;;;;;10.73;2.90;;;;;;;8.58;61.34;100543.03;5032213;28;20465;-71
2023/03/18 05:19:58;;;;;;;9.97;3.30;;;;;;;8.54;61.59;100540.13;5033760;28;20491;-71
2023/03/18 05:22:25;;;;;;;7.63;3.03;;;;;;;8.46;61.52;100540.75;5033510;28;20558;-70
2023/03/18 05:24:52;;;;;;;7.70;3.43;;;;;;;8.43;62.27;100535.13;5035449;28;20455;-71
2023/03/18 05:27:19;;;;;;;10.20;3.40;;;;;;;8.34;62.11;100533.03;5032736;28;20894;-71
2023/03/18 05:29:46;;;;;;;9.33;3.27;;;;;;;8.26;62.52;100528.25;5038616;28;20574;-70
2023/03/18 05:32:13;;;;;;;8.80;3.10;;;;;;;8.19;62.64;100529.66;5033196;28;20540;-71
2023/03/18 05:34:42;;;;;;;8.57;2.83;;;;;;;8.13;62.93;100526.22;5034073;28;20439;-71
2023/03/18 05:37:11;;;;;;;9.53;3.53;;;;;;;8.08;63.75;100521.69;5033851;28;20467;-71
2023/03/18 05:39:38;;;;;;;8.10;3.57;;;;;;;8.04;64.44;100522.53;5033995;28;20930;-71
2023/03/18 05:42:06;;;;;;;7.27;2.80;;;;;;;8.06;64.65;100531.97;5034330;28;20454;-71
2023/03/18 05:44:33;;;;;;;8.97;3.20;;;;;;;8.03;65.22;100532.53;5031811;28;20542;-70
2023/03/18 05:47:00;;;;;;;18.53;3.03;;;;;;;8.03;65.23;100529.84;5034288;28;20466;-71
2023/03/18 05:49:27;;;;;;;7.83;2.57;;;;;;;8.07;65.68;100533.56;5033007;28;20482;-71
2023/03/18 05:51:55;;;;;;;9.17;2.90;;;;;;;8.07;65.80;100538.19;5033801;28;21072;-71
2023/03/18 05:54:22;;;;;;;8.70;3.30;;;;;;;8.11;65.94;100533.81;5033081;28;20467;-71
2023/03/18 05:56:51;;;;;;;7.93;3.30;;;;;;;8.11;66.38;100550.00;5034117;28;20447;-71
2023/03/18 05:59:18;;;;;;;9.23;3.00;;;;;;;8.08;66.51;100543.28;5032893;28;20541;-71
2023/03/18 06:01:44;;;;;;;9.30;3.20;;;;;;;8.12;67.15;100535.41;5033998;28;20479;-71
2023/03/18 06:04:11;;;;;;;7.40;2.37;;;;;;;8.13;66.67;100547.81;5031444;28;20459;-71
2023/03/18 06:06:39;;;;;;;14.23;3.40;;;;;;;8.14;66.84;100546.72;5033935;28;20545;-71
2023/03/18 06:09:07;;;;;;;7.90;3.30;;;;;;;8.22;66.36;100535.31;5032980;28;20478;-71
2023/03/18 06:11:35;;;;;;;8.40;3.80;;;;;;;8.31;66.10;100538.19;5014065;28;20484;-70
2023/03/18 06:14:03;;;;;;;10.20;2.80;;;;;;;8.28;64.93;100538.78;5024885;28;20478;-71
2023/03/18 06:16:30;;;;;;;9.77;3.37;;;;;;;8.35;64.98;100550.00;5033336;28;20447;-71
2023/03/18 06:18:57;;;;;;;7.80;3.20;;;;;;;8.41;64.50;100556.19;5032231;28;20573;-71
2023/03/18 06:21:24;;;;;;;8.43;3.10;;;;;;;8.41;65.25;100550.78;5031643;28;20486;-71
2023/03/18 06:23:51;;;;;;;9.07;3.03;;;;;;;8.49;63.43;100560.94;5032163;28;20465;-71
2023/03/18 06:26:19;;;;;;;8.60;2.90;;;;;;;8.56;63.45;100558.72;5032034;28;20547;-71
2023/03/18 06:28:46;;;;;;;8.30;3.03;;;;;;;8.57;63.87;100557.63;5013762;28;20554;-70
2023/03/18 06:31:13;;;;;;;9.53;3.40;;;;;;;8.63;63.55;100553.75;5035059;28;20455;-71
2023/03/18 06:33:40;;;;;;;7.87;3.10;;;;;;;8.61;63.68;100563.25;5032533;28;20449;-72
2023/03/18 06:36:07;;;;;;;7.97;2.90;;;;;;;8.60;63.81;100559.75;5033387;28;20466;-72
2023/03/18 06:38:34;;;;;;;8.33;3.00;;;;;;;8.58;63.19;100561.91;5032657;28;20510;-71
2023/03/18 06:41:01;;;;;;;16.53;4.10;;;;;;;8.55;63.02;100567.91;5035042;28;20479;-71
2023/03/18 06:43:29;;;;;;;10.40;2.97;;;;;;;8.52;63.29;100563.09;5038896;28;20554;-71
2023/03/18 06:45:58;;;;;;;7.03;2.70;;;;;;;8.57;63.74;100563.03;5030976;28;20486;-71
2023/03/18 06:48:25;;;;;;;9.10;3.70;;;;;;;8.60;63.26;100565.16;5029395;28;20474;-71
2023/03/18 06:50:51;;;;;;;9.67;3.30;;;;;;;8.57;63.68;100566.53;5053443;28;20442;-70
2023/03/18 06:53:18;;;;;;;7.90;3.13;;;;;;;8.66;63.56;100566.69;5030936;28;20470;-71
2023/03/18 06:55:44;;;;;;;10.07;3.50;;;;;;;8.81;63.11;100580.03;5031927;28;20502;-71
2023/03/18 06:58:11;;;;;;;7.17;2.53;;;;;;;8.88;63.87;100579.66;5031430;28;20839;-70
2023/03/18 07:00:40;;;;;;;9.03;3.03;;;;;;;8.98;63.56;100584.13;5032542;28;20519;-71
2023/03/18 07:03:07;;;;;;;12.10;4.20;;;;;;;9.02;62.49;100585.16;5031549;28;20462;-71
2023/03/18 07:05:33;;;;;;;12.43;3.43;;;;;;;9.04;62.83;100591.88;5031745;28;20508;-71
2023/03/18 07:08:01;;;;;;;8.50;2.70;;;;;;;9.11;63.34;100588.81;5031940;28;20439;-71
2023/03/18 07:10:30;;;;;;;12.63;3.40;;;;;;;9.14;63.20;100595.53;5032693;28;20506;-71
2023/03/18 07:12:57;;;;;;;9.07;3.40;;;;;;;9.21;62.36;100598.66;5031990;28;20443;-71
2023/03/18 07:15:25;;;;;;;14.17;3.90;;;;;;;9.20;62.05;100605.97;5031598;28;20474;-71
2023/03/18 07:17:53;;;;;;;10.43;3.70;;;;;;;9.24;62.18;100607.00;5025574;28;20516;-71
2023/03/18 07:20:22;;;;;;;7.43;3.20;;;;;;;9.21;62.97;100609.47;5032545;28;20996;-71
2023/03/18 07:22:50;;;;;;;10.87;3.10;;;;;;;9.21;63.46;100610.31;5030673;28;20805;-71
2023/03/18 07:25:16;;;;;;;11.37;3.87;;;;;;;9.25;62.44;100615.91;5031761;28;20490;-71
2023/03/18 07:27:44;;;;;;;9.67;2.77;;;;;;;9.33;62.47;100616.06;5034056;28;20530;-71
2023/03/18 07:30:12;;;;;;;11.23;3.20;;;;;;;9.37;61.77;100616.28;5036326;28;21167;-71
2023/03/18 07:32:39;;;;;;;9.57;3.20;;;;;;;9.43;62.03;100623.25;5036016;28;20470;-71
2023/03/18 07:35:09;;;;;;;6.83;2.20;;;;;;;9.56;61.90;100618.97;5036361;28;20542;-71
2023/03/18 07:37:36;;;;;;;11.30;3.23;;;;;;;9.55;62.59;100612.78;5035721;28;20550;-71
2023/03/18 07:40:02;;;;;;;9.63;3.50;;;;;;;9.62;62.39;100620.53;5035830;28;21059;-71
2023/03/18 07:42:29;;;;;;;9.93;4.07;;;;;;;9.74;61.78;100634.41;5036826;28;20447;-72
2023/03/18 07:44:56;;;;;;;10.60;3.40;;;;;;;9.89;60.02;100635.28;5035007;28;20467;-71
2023/03/18 07:47:23;;;;;;;9.23;3.13;;;;;;;9.99;60.08;100635.09;5029234;28;20459;-70
2023/03/18 07:49:50;;;;;;;10.30;3.83;;;;;;;10.09;59.34;100643.88;5035963;28;20464;-72
2023/03/18 07:52:18;;;;;;;11.10;4.30;;;;;;;10.27;58.84;100654.94;5039418;28;20489;-71
2023/03/18 07:54:45;;;;;;;8.30;2.87;;;;;;;10.42;58.82;100648.47;5043019;28;20486;-71
2023/03/18 07:57:12;;;;;;;10.10;3.90;;;;;;;10.58;58.04;100647.91;5033907;28;20845;-72
2023/03/18 07:59:38;;;;;;;13.30;3.20;;;;;;;10.77;57.79;100638.88;5032292;28;20485;-69
2023/03/18 08:02:06;;;;;;;9.80;4.13;;;;;;;10.96;57.94;100630.66;5044520;28;20543;-69
2023/03/18 08:04:34;;;;;;;7.67;2.80;;;;;;;11.02;57.43;100640.28;5036190;28;20470;-69
2023/03/18 08:07:01;;;;;;;10.33;3.70;;;;;;;11.18;57.20;100638.06;5034890;28;20463;-69
2023/03/18 08:09:29;;;;;;;7.90;3.07;;;;;;;11.37;56.96;100644.94;5034717;28;20513;-69
2023/03/18 08:11:56;;;;;;;8.00;3.33;;;;;;;11.53;56.61;100645.41;5035793;28;20447;-70
2023/03/18 08:14:23;;;;;;;7.00;2.97;;;;;;;11.70;56.24;100657.53;5035020;28;20550;-69
2023/03/18 08:16:49;;;;;;;10.43;3.00;;;;;;;11.85;55.65;100657.19;5036003;28;20439;-69
2023/03/18 08:19:16;;;;;;;8.00;2.80;;;;;;;12.00;55.80;100664.19;5026598;28;20794;-70
2023/03/18 08:21:42;;;;;;;8.10;3.20;;;;;;;12.15;55.35;100661.09;5027973;28;21004;-69
2023/03/18 08:24:09;;;;;;;8.00;3.70;;;;;;;12.33;54.82;100651.94;5033937;28;20467;-70
2023/03/18 08:26:37;;;;;;;9.67;3.00;;;;;;;12.52;54.30;100656.34;5034972;28;20473;-70
2023/03/18 08:29:04;;;;;;;8.73;3.30;;;;;;;12.66;54.75;100657.06;5032326;28;20490;-70
2023/03/18 08:31:31;;;;;;;8.10;3.57;;;;;;;12.87;53.87;100641.78;5033384;28;20994;-70
2023/03/18 08:33:59;;;;;;;9.13;3.63;;;;;;;13.02;53.49;100656.09;5035674;28;20546;-69
2023/03/18 08:36:27;;;;;;;9.17;3.20;;;;;;;13.09;53.81;100657.19;5034186;28;20459;-69
2023/03/18 08:38:54;;;;;;;14.97;2.90;;;;;;;13.07;53.87;100654.00;5032633;28;20915;-69
2023/03/18 08:41:21;;;;;;;10.10;3.30;;;;;;;13.12;53.73;100655.78;5033105;28;20578;-70
2023/03/18 08:43:51;;;;;;;8.43;3.13;;;;;;;13.19;53.16;100656.09;5033112;28;20471;-70
2023/03/18 08:46:18;;;;;;;12.07;2.97;;;;;;;13.24;53.14;100663.38;5030783;28;20481;-70
2023/03/18 08:48:44;;;;;;;9.90;3.20;;;;;;;13.23;53.02;100667.97;5029517;28;20561;-70
2023/03/18 08:51:11;;;;;;;8.30;3.17;;;;;;;13.20;53.27;100671.31;5032820;28;21271;-69
2023/03/18 08:53:38;;;;;;;8.70;3.50;;;;;;;13.31;53.28;100674.56;5032786;28;20463;-70
2023/03/18 08:56:06;;;;;;;9.33;2.93;;;;;;;13.41;54.25;100673.47;5031552;28;20879;-69
2023/03/18 08:58:34;;;;;;;8.30;3.27;;;;;;;13.56;54.11;100671.09;5026785;28;20609;-69
2023/03/18 09:01:04;;;;;;;7.30;3.07;;;;;;;13.65;53.08;100676.53;5029156;28;20577;-69
2023/03/18 09:03:30;;;;;;;8.13;2.40;;;;;;;13.66;52.94;100677.34;5031876;28;20493;-70
2023/03/18 09:05:57;;;;;;;8.30;3.10;;;;;;;13.69;53.34;100680.22;5033762;28;20495;-70
2023/03/18 09:08:24;;;;;;;9.27;3.00;;;;;;;13.72;52.82;100684.22;5030734;28;20455;-69
2023/03/18 09:10:52;;;;;;;7.17;2.40;;;;;;;13.72;53.02;100676.84;5041546;28;20815;-70
2023/03/18 09:13:18;;;;;;;7.50;2.20;;;;;;;13.66;53.60;100672.69;5031553;28;20482;-70
2023/03/18 09:15:45;;;;;;;11.10;2.40;;;;;;;13.74;53.55;100682.78;5029325;28;20494;-70
2023/03/18 09:18:14;;;;;;;8.83;3.27;;;;;;;13.86;53.48;100685.69;5031921;28;20479;-69
2023/03/18 09:20:41;;;;;;;8.50;2.83;;;;;;;14.02;53.11;100688.72;5031864;28;20558;-70
2023/03/18 09:23:07;;;;;;;6.33;2.43;;;;;;;14.16;52.66;100696.69;5031555;28;20470;-70
2023/03/18 09:25:34;;;;;;;11.37;3.00;;;;;;;14.24;52.19;100689.66;5029751;28;20468;-70
2023/03/18 09:28:01;;;;;;;6.53;2.70;;;;;;;14.21;52.71;100695.72;5030910;28;20546;-70
2023/03/18 09:30:28;;;;;;;8.20;2.60;;;;;;;14.23;53.01;100694.31;5026136;28;20479;-70
2023/03/18 09:32:55;;;;;;;9.33;3.30;;;;;;;14.32;52.72;100691.56;5023484;28;20467;-70
2023/03/18 09:35:24;;;;;;;8.60;2.87;;;;;;;14.36;52.87;100685.16;5026891;28;21211;-70
2023/03/18 09:37:51;;;;;;;7.37;2.50;;;;;;;14.46;52.37;100685.91;5031488;28;20995;-70
2023/03/18 09:40:24;;;;;;;8.03;3.07;;;;;;;14.66;52.30;100689.91;5030550;28;21014;-70
2023/03/18 09:43:02;;;;;;;11.30;2.90;;;;;;;14.86;52.39;100692.72;5030153;28;20446;-70
2023/03/18 09:45:33;;;;;;;8.80;3.03;;;;;;;15.10;51.81;100691.34;5029762;28;20521;-70
2023/03/18 09:48:33;;;;;;;6.47;2.20;;;;;;;15.37;52.27;100699.06;5030685;28;21473;-70
2023/03/18 09:51:10;;;;;;;7.90;2.83;;;;;;;15.55;51.36;100694.28;5019878;28;21283;-70
2023/03/18 09:53:43;;;;;;;8.10;2.60;;;;;;;15.59;53.07;100705.34;5032095;28;20458;-70
2023/03/18 09:56:16;;;;;;;8.90;3.30;;;;;;;15.72;50.76;100708.97;5029191;28;20908;-70
2023/03/18 09:58:49;;;;;;;9.33;2.87;;;;;;;15.86;50.53;100704.03;5032835;28;20545;-70
2023/03/18 10:01:18;;;;;;;8.13;2.63;;;;;;;15.96;49.31;100702.84;5030564;28;20562;-70
2023/03/18 10:03:51;;;;;;;5.90;1.70;;;;;;;16.07;50.20;100704.84;5027220;28;20474;-70
2023/03/18 10:06:22;;;;;;;7.10;2.10;;;;;;;16.23;50.25;100702.25;5028939;28;20469;-70
2023/03/18 10:08:57;;;;;;;8.17;2.87;;;;;;;16.30;49.83;100697.06;5030900;28;20561;-70
2023/03/18 10:11:28;;;;;;;9.23;2.80;;;;;;;16.32;49.28;100697.50;5023672;28;20550;-69
2023/03/18 10:14:17;;;;;;;7.07;2.10;;;;;;;16.35;49.92;100702.31;5031587;28;20542;-67
2023/03/18 10:16:55;;;;;;;15.43;3.00;;;;;;;16.27;49.74;100692.25;5029576;28;20485;-67
2023/03/18 10:19:22;;;;;;;6.63;2.30;;;;;;;16.35;49.60;100694.13;5030290;28;20888;-67
2023/03/18 10:22:02;;;;;;;6.47;2.43;;;;;;;16.32;49.76;100702.97;5027461;28;20487;-68
2023/03/18 10:24:37;;;;;;;7.37;2.17;;;;;;;16.38;50.71;100693.44;5031590;28;20511;-67
2023/03/18 10:27:15;;;;;;;7.50;2.70;;;;;;;16.36;51.82;100694.91;5022959;28;20466;-67
2023/03/18 10:29:47;;;;;;;10.70;2.60;;;;;;;16.43;52.11;100688.91;5021711;28;20480;-67
2023/03/18 10:32:27;;;;;;;7.60;2.40;;;;;;;16.39;50.97;100695.03;5028422;28;20554;-66
2023/03/18 10:35:02;;;;;;;7.27;2.50;;;;;;;16.49;50.18;100691.06;5014800;28;21061;-66
2023/03/18 10:37:41;;;;;;;7.83;2.30;;;;;;;16.59;50.16;100700.78;5025475;28;20502;-67
2023/03/18 10:40:14;;;;;;;6.73;2.30;;;;;;;16.61;50.16;100706.72;5028047;28;20479;-66
2023/03/18 10:42:41;;;;;;;6.47;2.23;;;;;;;16.64;49.97;100706.84;5029975;28;20483;-66
2023/03/18 10:45:19;;;;;;;7.07;2.27;;;;;;;16.77;51.35;100699.47;5023248;28;20599;-68
2023/03/18 10:47:52;;;;;;;7.63;2.67;;;;;;;17.07;48.94;100691.06;5030387;28;20451;-68
2023/03/18 10:50:22;;;;;;;7.23;2.60;;;;;;;17.25;48.45;100695.16;5031853;28;20560;-66
2023/03/18 10:52:54;;;;;;;9.47;2.50;;;;;;;17.43;49.44;100695.72;5031317;28;20463;-68
2023/03/18 10:55:29;;;;;;;11.10;2.90;;;;;;;17.54;48.16;100693.31;5025623;28;20463;-68
2023/03/18 10:57:56;;;;;;;6.57;2.23;;;;;;;17.60;47.92;100694.66;5023655;28;20875;-67
2023/03/18 11:00:28;;;;;;;7.00;2.70;;;;;;;17.68;47.61;100701.94;5026558;28;20591;-68
2023/03/18 11:02:56;;;;;;;6.93;2.70;;;;;;;17.63;47.20;100703.00;5027127;28;20459;-67
2023/03/18 11:05:27;;;;;;;7.70;2.63;;;;;;;17.57;47.68;100707.09;5031433;28;20459;-65
2023/03/18 11:08:00;;;;;;;7.07;2.30;;;;;;;17.40;47.69;100708.16;5028930;28;20455;-68
2023/03/18 11:10:30;;;;;;;7.27;2.20;;;;;;;17.58;48.84;100710.66;5036515;28;20565;-67
2023/03/18 11:13:01;;;;;;;7.63;3.00;;;;;;;17.67;48.44;100703.09;5033033;28;20455;-67
2023/03/18 11:15:28;;;;;;;11.20;2.60;;;;;;;17.81;48.06;100700.81;5034418;28;20968;-66
2023/03/18 11:17:59;;;;;;;9.77;2.90;;;;;;;18.11;48.79;100701.28;5027855;28;20466;-68
2023/03/18 11:20:41;;;;;;;10.60;2.83;;;;;;;18.33;47.95;100702.66;5029831;28;20554;-67
2023/03/18 11:23:16;;;;;;;7.00;2.67;;;;;;;18.48;45.93;100716.75;5026508;28;20459;-68
2023/03/18 11:25:47;;;;;;;5.87;1.90;;;;;;;18.41;46.58;100709.91;5025430;28;20474;-69
2023/03/18 11:28:21;;;;;;;8.57;2.87;;;;;;;18.22;46.33;100706.25;5029120;28;20455;-67
2023/03/18 11:30:51;;;;;;;6.73;2.40;;;;;;;18.10;48.08;100704.34;5024067;28;20466;-67
2023/03/18 11:33:18;;;;;;;8.00;2.47;;;;;;;18.32;47.42;100703.78;5028866;28;20649;-68